キング・ハーリド国際空港(リヤド)の過去48時間の天気

キング・ハーリド国際空港(リヤド) (King Khaled International Airport)

現在時刻: 10/26 12:15 +03 (10/26 09:15 UTC) 以下の時間は現地時間です。

過去48時間のMETAR気象情報
時間 風向 風速(m/s) 視程 気温(℃) 湿度(%) 気圧(hPa) 天気現象
26 12:00 南南東 5 8000m 30 29 1017
26 11:00 南南東 5 10km以上 29 29 1018
26 10:00 南南東 5 10km以上 28 28 1019
26 09:00 南東 5 10km以上 26 32 1019
26 08:00 南東 3 10km以上 23 53 1019
26 07:00 南東 2 10km以上 21 56 1018
26 06:00 南東 2 10km以上 21 56 1018
26 05:00 東南東 3 10km以上 21 56 1017
26 04:00 2 10km以上 21 53 1017
26 03:00 3 10km以上 22 46 1017
26 02:00 東南東 2 10km以上 23 47 1017
26 01:00 南東 2 10km以上 24 41 1017
26 00:00 2 10km以上 25 39 1017
25 23:00 南東 1 10km以上 26 39 1017
OERK 260900Z 15009KT 8000 NSC 30/10 Q1017 NOSIG
OERK 260800Z 16009KT CAVOK 29/09 Q1018 NOSIG
OERK 260700Z 16010KT CAVOK 28/08 Q1019 NOSIG
OERK 260600Z 14009KT CAVOK 26/08 Q1019 NOSIG
OERK 260500Z 14005KT CAVOK 23/13 Q1019 NOSIG
OERK 260400Z 13004KT CAVOK 21/12 Q1018 NOSIG
OERK 260300Z 13003KT CAVOK 21/12 Q1018 NOSIG
OERK 260200Z 12005KT CAVOK 21/12 Q1017 NOSIG
OERK 260100Z 09004KT CAVOK 21/11 Q1017 NOSIG
OERK 260000Z 10005KT CAVOK 22/10 Q1017 NOSIG
OERK 252300Z 12003KT CAVOK 23/11 Q1017 NOSIG
OERK 252200Z 14004KT CAVOK 24/10 Q1017 NOSIG
OERK 252100Z 17004KT CAVOK 25/10 Q1017 NOSIG
OERK 252000Z 13002KT CAVOK 26/11 Q1017 NOSIG